Terminal Aerodrome Forecast
Issued by NWS

Home | Current Version | Previous Version | Graphics & Text | Print | Product List | Glossary On
Versions: 1 2 3 4 5 6 7 8 9 10 11 12 13 14 15
000
FTUS43 KBIS 231125
TAFDIK
TAF
KDIK 231125Z 2312/2412 31017G26KT P6SM FEW030 BKN040
     FM231700 31022G31KT P6SM FEW045 SCT080
     FM240200 32013KT P6SM FEW070 FEW200
     FM240400 31009KT P6SM FEW060 FEW200=

USA.gov is the U.S. government's official web portal to all federal, state and local government web resources and services.